Terminal Aerodrome Forecast
Issued by NWS

Home | Current Version | Previous Version | Text Only | Print | Product List | Glossary On
Versions: 1 2 3 4 5 6 7 8 9 10 11 12
630
FTUS43 KMQT 030533
TAFSAW
TAF
KSAW 030533Z 0306/0406 22003KT P6SM SKC
     FM031300 24007KT P6SM SCT140
     FM031700 24010G16KT P6SM -SHRA OVC080
     FM032100 27005KT P6SM VCSH OVC045
     FM032300 33006KT P6SM VCSH OVC045=

USA.gov is the U.S. government's official web portal to all federal, state and local government web resources and services.